Time;durP1;ratioP1;P1;durP2;ratioP2;P2;SDS_P1;SDS_P2;PMS_P1;PMS_P2;Temp;Humidity;BMP_temperature;BMP_pressure;BME280_temperature;BME280_humidity;BME280_pressure;Samples;Min_cycle;Max_cycle;Signal;HPM_P1;HPM_P2
2022/09/10 00:00:11;;;;;;;5.15;3.27;;;;;;;;;;1713511;84;21075;-64
2022/09/10 00:02:37;;;;;;;6.67;3.15;;;;;;;;;;1714305;84;21047;-65
2022/09/10 00:05:04;;;;;;;6.40;3.25;;;;;;;;;;1715137;84;21059;-65
2022/09/10 00:07:31;;;;;;;6.45;3.05;;;;;;;;;;1730435;83;21498;-65
2022/09/10 00:09:57;;;;;;;5.22;3.10;;;;;;;;;;1729457;82;21105;-63
2022/09/10 00:12:23;;;;;;;6.15;3.30;;;;;;;;;;1727578;83;21058;-64
2022/09/10 00:14:52;;;;;;;5.33;3.15;;;;;;;;;;1729777;82;21116;-64
2022/09/10 00:17:18;;;;;;;7.10;3.08;;;;;;;;;;1695432;85;21043;-64
2022/09/10 00:19:44;;;;;;;6.25;3.00;;;;;;;;;;1714573;84;21063;-65
2022/09/10 00:22:12;;;;;;;5.95;2.98;;;;;;;;;;1715146;83;21057;-63
2022/09/10 00:24:38;;;;;;;6.03;2.92;;;;;;;;;;1729959;83;21062;-64
2022/09/10 00:27:04;;;;;;;5.03;3.05;;;;;;;;;;1730016;83;21031;-64
2022/09/10 00:29:30;;;;;;;4.95;2.95;;;;;;;;;;1725382;83;21072;-64
2022/09/10 00:31:57;;;;;;;5.17;3.10;;;;;;;;;;1721029;83;21080;-64
2022/09/10 00:34:24;;;;;;;4.92;3.10;;;;;;;;;;1721162;83;21041;-64
2022/09/10 00:36:50;;;;;;;4.90;3.05;;;;;;;;;;1721062;83;21543;-64
2022/09/10 00:39:17;;;;;;;5.17;2.58;;;;;;;;;;1721143;83;21123;-64
2022/09/10 00:41:44;;;;;;;5.60;3.20;;;;;;;;;;1727697;83;21618;-64
2022/09/10 00:44:30;;;;;;;5.75;2.87;;;;;;;;;;1730235;83;21055;-64
2022/09/10 00:46:58;;;;;;;4.78;3.12;;;;;;;;;;1667506;85;21052;-64
2022/09/10 00:49:28;;;;;;;4.78;2.83;;;;;;;;;;1704845;84;20994;-64
2022/09/10 00:51:55;;;;;;;5.10;3.30;;;;;;;;;;1698465;84;21525;-64
2022/09/10 00:54:22;;;;;;;4.42;2.90;;;;;;;;;;1728260;83;21031;-64
2022/09/10 00:56:48;;;;;;;4.67;2.80;;;;;;;;;;1730007;82;21570;-63
2022/09/10 00:59:15;;;;;;;5.05;2.75;;;;;;;;;;1729908;82;21562;-64
2022/09/10 01:04:38;;;;;;;5.70;3.05;;;;;;;;;;1679128;79;76677;-77
2022/09/10 01:07:05;;;;;;;4.47;2.85;;;;;;;;;;1653872;86;21056;-78
2022/09/10 01:09:31;;;;;;;5.17;3.00;;;;;;;;;;1644588;87;21631;-78
2022/09/10 01:12:17;;;;;;;4.65;2.77;;;;;;;;;;1660668;84;21107;-77
2022/09/10 01:14:51;;;;;;;4.12;2.60;;;;;;;;;;1707206;84;21574;-77
2022/09/10 01:17:21;;;;;;;7.17;3.00;;;;;;;;;;1707897;84;21075;-77
2022/09/10 01:20:06;;;;;;;5.03;2.80;;;;;;;;;;1707159;84;21143;-77
2022/09/10 01:22:38;;;;;;;4.78;3.05;;;;;;;;;;1696435;84;21114;-77
2022/09/10 01:25:09;;;;;;;4.65;2.70;;;;;;;;;;1671751;84;21066;-77
2022/09/10 01:27:43;;;;;;;4.50;2.60;;;;;;;;;;1672646;84;21089;-77
2022/09/10 01:30:11;;;;;;;4.72;2.77;;;;;;;;;;1700051;84;21073;-78
2022/09/10 01:32:46;;;;;;;4.87;2.65;;;;;;;;;;1700091;84;20997;-78
2022/09/10 01:35:16;;;;;;;3.75;2.90;;;;;;;;;;1699381;84;21108;-77
2022/09/10 01:37:44;;;;;;;6.08;3.10;;;;;;;;;;1698372;84;21001;-77
2022/09/10 01:40:10;;;;;;;4.95;2.75;;;;;;;;;;1670515;86;21120;-78
2022/09/10 01:42:38;;;;;;;5.97;2.87;;;;;;;;;;1670171;86;21033;-77
2022/09/10 01:45:06;;;;;;;4.70;2.90;;;;;;;;;;1699832;84;21071;-77
2022/09/10 01:47:39;;;;;;;4.87;3.05;;;;;;;;;;1707754;84;21558;-78
2022/09/10 01:50:14;;;;;;;3.60;2.70;;;;;;;;;;1708045;84;21047;-77
2022/09/10 01:52:42;;;;;;;5.00;2.90;;;;;;;;;;1707818;84;21603;-77
2022/09/10 01:55:20;;;;;;;4.83;2.80;;;;;;;;;;1678857;84;21052;-77
2022/09/10 01:57:55;;;;;;;4.92;2.80;;;;;;;;;;1670494;86;21614;-77
2022/09/10 02:00:23;;;;;;;4.75;2.65;;;;;;;;;;1669581;86;21111;-77
2022/09/10 02:02:54;;;;;;;3.15;2.40;;;;;;;;;;1670900;84;21053;-77
2022/09/10 02:05:22;;;;;;;5.33;2.80;;;;;;;;;;1691817;84;20998;-78
2022/09/10 02:07:51;;;;;;;4.60;2.70;;;;;;;;;;1689459;84;21065;-77
2022/09/10 02:10:18;;;;;;;4.03;2.67;;;;;;;;;;1675852;85;21018;-76
2022/09/10 02:15:38;;;;;;;4.58;2.87;;;;;;;;;;1887117;76;22679;-65
2022/09/10 02:18:18;;;;;;;4.17;3.00;;;;;;;;;;1861492;77;20989;-64
2022/09/10 02:20:45;;;;;;;5.35;3.62;;;;;;;;;;1863825;77;21063;-64
2022/09/10 02:23:12;;;;;;;4.53;2.77;;;;;;;;;;1862689;77;20965;-65
2022/09/10 02:25:40;;;;;;;4.65;2.70;;;;;;;;;;1862013;77;21032;-64
2022/09/10 02:28:06;;;;;;;3.83;2.70;;;;;;;;;;1862181;77;21621;-64
2022/09/10 02:30:32;;;;;;;3.80;2.55;;;;;;;;;;1862304;77;21052;-64
2022/09/10 02:32:58;;;;;;;4.65;2.70;;;;;;;;;;1863162;77;21016;-64
2022/09/10 04:02:50;;;;;;;5.95;2.95;;;;;;;;;;1797629;79;22986;-64
2022/09/10 04:05:17;;;;;;;4.00;2.90;;;;;;;;;;1766355;80;21046;-64
2022/09/10 04:07:45;;;;;;;3.83;2.70;;;;;;;;;;1761274;80;21075;-64
2022/09/10 04:10:12;;;;;;;4.42;2.77;;;;;;;;;;1761428;81;21551;-64
2022/09/10 04:12:39;;;;;;;3.45;2.65;;;;;;;;;;1760553;81;21064;-63
2022/09/10 04:15:08;;;;;;;3.55;2.62;;;;;;;;;;1768408;80;21487;-64
2022/09/10 04:17:34;;;;;;;3.27;2.50;;;;;;;;;;1760065;81;21573;-64
2022/09/10 04:32:12;;;;;;;3.10;2.25;;;;;;;;;;1810625;78;23501;-66
2022/09/10 04:34:38;;;;;;;4.10;2.22;;;;;;;;;;1753724;80;20988;-65
2022/09/10 04:37:05;;;;;;;3.35;2.42;;;;;;;;;;1770671;80;21088;-65
2022/09/10 04:39:33;;;;;;;2.90;2.20;;;;;;;;;;1773250;80;21016;-65
2022/09/10 04:42:00;;;;;;;2.87;2.17;;;;;;;;;;1758376;80;21030;-65
2022/09/10 04:44:28;;;;;;;3.42;2.25;;;;;;;;;;1761303;81;21056;-65
2022/09/10 04:46:55;;;;;;;2.95;2.20;;;;;;;;;;1762760;80;21036;-65
2022/09/10 04:49:23;;;;;;;3.02;2.17;;;;;;;;;;1768323;80;21570;-65
2022/09/10 04:51:50;;;;;;;3.40;2.35;;;;;;;;;;1765142;80;21048;-65
2022/09/10 04:54:18;;;;;;;2.35;2.05;;;;;;;;;;1762975;80;21540;-65
2022/09/10 04:56:46;;;;;;;3.40;2.40;;;;;;;;;;1755895;80;21043;-65
2022/09/10 04:59:12;;;;;;;3.87;2.27;;;;;;;;;;1785661;80;21040;-65
2022/09/10 05:01:39;;;;;;;2.83;2.02;;;;;;;;;;1773625;80;21013;-65
2022/09/10 05:04:05;;;;;;;2.12;1.90;;;;;;;;;;1761414;80;21566;-65
2022/09/10 05:06:33;;;;;;;3.00;1.98;;;;;;;;;;1770271;80;21362;-64
2022/09/10 05:09:00;;;;;;;2.65;2.10;;;;;;;;;;1773278;80;21087;-65
2022/09/10 05:11:26;;;;;;;3.70;2.35;;;;;;;;;;1765422;80;20972;-65
2022/09/10 05:13:53;;;;;;;3.22;2.50;;;;;;;;;;1783431;80;21059;-65
2022/09/10 05:16:21;;;;;;;2.62;2.20;;;;;;;;;;1765381;80;21122;-65
2022/09/10 05:18:47;;;;;;;4.30;2.42;;;;;;;;;;1770564;80;21048;-65
2022/09/10 05:21:14;;;;;;;3.27;2.27;;;;;;;;;;1760339;80;21516;-64
2022/09/10 05:23:41;;;;;;;3.83;2.72;;;;;;;;;;1753006;81;21049;-66
2022/09/10 05:26:08;;;;;;;3.62;2.55;;;;;;;;;;1740239;82;21100;-66
2022/09/10 05:28:36;;;;;;;3.37;2.50;;;;;;;;;;1739666;82;21096;-66
2022/09/10 05:31:05;;;;;;;2.72;2.05;;;;;;;;;;1745981;81;21056;-65
2022/09/10 05:33:33;;;;;;;2.77;2.40;;;;;;;;;;1725831;82;21092;-66
2022/09/10 05:35:59;;;;;;;2.50;2.30;;;;;;;;;;1716061;82;21100;-65
2022/09/10 05:38:26;;;;;;;2.87;2.25;;;;;;;;;;1729752;82;20978;-65
2022/09/10 05:40:53;;;;;;;3.20;2.40;;;;;;;;;;1713568;82;21551;-65
2022/09/10 05:43:20;;;;;;;2.92;2.35;;;;;;;;;;1722596;82;21029;-66
2022/09/10 05:45:47;;;;;;;3.30;2.50;;;;;;;;;;1721504;82;21053;-66
2022/09/10 05:48:14;;;;;;;3.33;2.70;;;;;;;;;;1710648;82;21029;-66
2022/09/10 05:50:40;;;;;;;2.85;2.40;;;;;;;;;;1738310;82;21013;-66
2022/09/10 05:53:06;;;;;;;3.67;2.40;;;;;;;;;;1735713;82;21068;-65
2022/09/10 05:55:32;;;;;;;3.72;2.80;;;;;;;;;;1720874;82;21065;-66
2022/09/10 05:58:01;;;;;;;3.80;2.90;;;;;;;;;;1731692;82;21532;-63
2022/09/10 06:00:28;;;;;;;3.80;3.00;;;;;;;;;;1728597;82;21568;-64
2022/09/10 06:02:56;;;;;;;2.60;2.30;;;;;;;;;;1728236;81;21092;-63
2022/09/10 06:05:27;;;;;;;3.22;2.47;;;;;;;;;;1722655;82;21081;-64
2022/09/10 06:07:54;;;;;;;4.62;2.67;;;;;;;;;;1723472;82;21112;-64
2022/09/10 06:10:21;;;;;;;2.45;2.25;;;;;;;;;;1733207;82;21560;-63
2022/09/10 06:12:50;;;;;;;3.42;2.50;;;;;;;;;;1726819;82;21037;-63
2022/09/10 06:15:18;;;;;;;3.52;2.30;;;;;;;;;;1710050;84;21511;-64
2022/09/10 06:17:44;;;;;;;3.67;2.42;;;;;;;;;;1717070;82;21029;-64
2022/09/10 06:20:12;;;;;;;3.90;2.47;;;;;;;;;;1721009;82;21449;-62
2022/09/10 06:22:39;;;;;;;3.15;2.52;;;;;;;;;;1726500;82;21136;-64
2022/09/10 06:25:08;;;;;;;2.75;2.30;;;;;;;;;;1720650;82;21049;-62
2022/09/10 06:27:34;;;;;;;3.33;2.52;;;;;;;;;;1718901;82;21053;-63
2022/09/10 06:30:03;;;;;;;4.10;2.70;;;;;;;;;;1724326;82;21037;-62
2022/09/10 06:35:05;;;;;;;3.55;2.70;;;;;;;;;;1743983;82;21095;-62
2022/09/10 06:37:33;;;;;;;3.85;2.75;;;;;;;;;;1722356;82;21543;-62
2022/09/10 06:40:02;;;;;;;3.75;2.67;;;;;;;;;;1731168;82;21536;-63
2022/09/10 06:42:31;;;;;;;3.05;2.52;;;;;;;;;;1725275;81;21032;-63
2022/09/10 06:45:08;;;;;;;5.58;2.40;;;;;;;;;;1631790;87;21587;-62
2022/09/10 06:47:54;;;;;;;3.47;2.62;;;;;;;;;;1711793;82;21094;-62
2022/09/10 06:50:21;;;;;;;3.50;2.50;;;;;;;;;;1724396;82;21096;-63
2022/09/10 06:52:49;;;;;;;3.22;2.72;;;;;;;;;;1701108;82;21061;-63
2022/09/10 06:55:17;;;;;;;3.25;2.60;;;;;;;;;;1733600;82;21009;-63
2022/09/10 06:57:45;;;;;;;3.40;2.60;;;;;;;;;;1733101;82;21007;-63
2022/09/10 07:00:14;;;;;;;3.65;2.98;;;;;;;;;;1719780;82;21022;-64
2022/09/10 07:02:42;;;;;;;3.30;2.70;;;;;;;;;;1735321;82;21022;-64
2022/09/10 07:05:10;;;;;;;2.90;2.40;;;;;;;;;;1732890;82;21031;-63
2022/09/10 07:07:38;;;;;;;3.72;2.98;;;;;;;;;;1746654;82;21505;-63
2022/09/10 07:10:06;;;;;;;3.85;2.70;;;;;;;;;;1721330;82;21068;-64
2022/09/10 07:12:33;;;;;;;3.77;2.90;;;;;;;;;;1744653;82;21547;-63
2022/09/10 07:15:00;;;;;;;3.40;2.90;;;;;;;;;;1718537;82;21020;-63
2022/09/10 07:17:28;;;;;;;5.10;3.30;;;;;;;;;;1719271;82;21563;-64
2022/09/10 07:19:54;;;;;;;4.10;2.92;;;;;;;;;;1720054;82;21523;-63
2022/09/10 07:22:22;;;;;;;4.70;3.20;;;;;;;;;;1719220;82;21571;-62
2022/09/10 07:24:50;;;;;;;3.62;2.67;;;;;;;;;;1730984;82;21065;-63
2022/09/10 07:42:29;;;;;;;3.52;3.00;;;;;;;;;;1796579;79;22936;-63
2022/09/10 07:44:57;;;;;;;4.30;3.00;;;;;;;;;;1785686;80;21162;-62
2022/09/10 07:47:24;;;;;;;4.53;3.33;;;;;;;;;;1776650;80;21350;-63
2022/09/10 07:49:51;;;;;;;3.40;2.87;;;;;;;;;;1768426;80;21024;-63
2022/09/10 07:52:18;;;;;;;4.03;3.35;;;;;;;;;;1757759;80;21057;-63
2022/09/10 07:54:49;;;;;;;4.85;3.52;;;;;;;;;;1763443;80;20994;-63
2022/09/10 07:57:16;;;;;;;3.75;3.25;;;;;;;;;;1758078;81;21035;-63
2022/09/10 07:59:42;;;;;;;4.70;3.80;;;;;;;;;;1760608;80;21036;-62
2022/09/10 08:02:11;;;;;;;4.03;3.25;;;;;;;;;;1785941;80;21512;-63
2022/09/10 08:04:38;;;;;;;4.37;3.60;;;;;;;;;;1759778;80;21024;-62
2022/09/10 08:07:07;;;;;;;4.15;3.30;;;;;;;;;;1751298;81;21021;-62
2022/09/10 08:09:35;;;;;;;4.53;3.62;;;;;;;;;;1757557;80;21012;-62
2022/09/10 08:12:02;;;;;;;5.58;4.00;;;;;;;;;;1758445;81;21049;-62
2022/09/10 08:14:30;;;;;;;6.30;3.80;;;;;;;;;;1764832;80;20997;-62
2022/09/10 08:16:57;;;;;;;5.70;3.87;;;;;;;;;;1766387;80;21543;-62
2022/09/10 08:19:23;;;;;;;4.58;3.62;;;;;;;;;;1775641;80;20995;-62
2022/09/10 08:21:50;;;;;;;4.90;4.00;;;;;;;;;;1762067;80;21136;-63
2022/09/10 08:24:18;;;;;;;4.87;3.90;;;;;;;;;;1761049;80;21028;-62
2022/09/10 08:26:47;;;;;;;4.90;3.95;;;;;;;;;;1757513;80;21025;-63
2022/09/10 08:29:13;;;;;;;4.80;3.87;;;;;;;;;;1756579;80;21064;-62
2022/09/10 08:31:40;;;;;;;5.58;3.92;;;;;;;;;;1778395;80;21027;-63
2022/09/10 08:34:14;;;;;;;5.30;4.08;;;;;;;;;;1774107;80;21032;-63
2022/09/10 08:36:42;;;;;;;6.67;4.55;;;;;;;;;;1759904;80;21087;-62
2022/09/10 08:39:09;;;;;;;10.85;7.83;;;;;;;;;;1759618;80;21161;-62
2022/09/10 08:41:38;;;;;;;7.15;4.95;;;;;;;;;;1742861;80;21146;-63
2022/09/10 08:44:12;;;;;;;5.30;4.17;;;;;;;;;;1736155;81;21069;-63
2022/09/10 08:46:43;;;;;;;7.15;4.70;;;;;;;;;;1728305;81;21056;-61
2022/09/10 08:49:27;;;;;;;5.65;4.47;;;;;;;;;;1734375;81;21025;-61
2022/09/10 08:51:56;;;;;;;6.25;4.33;;;;;;;;;;1750990;81;21075;-61
2022/09/10 09:12:01;;;;;;;6.10;5.05;;;;;;;;;;1685765;81;21218;-60
2022/09/10 09:17:13;;;;;;;7.25;4.83;;;;;;;;;;1719511;79;21243;-70
2022/09/10 09:19:45;;;;;;;7.33;5.55;;;;;;;;;;1747960;80;21037;-70
2022/09/10 09:22:20;;;;;;;8.45;4.78;;;;;;;;;;1755572;79;21042;31
2022/09/10 09:24:50;;;;;;;6.35;4.95;;;;;;;;;;1752827;80;21087;-72
2022/09/10 09:39:01;;;;;;;6.03;4.28;;;;;;;;;;1754634;79;21164;-71
2022/09/10 09:44:18;;;;;;;5.95;4.65;;;;;;;;;;1736362;79;76406;-61
2022/09/10 09:46:45;;;;;;;6.87;5.00;;;;;;;;;;1732132;81;21048;-63
2022/09/10 09:49:14;;;;;;;7.55;4.90;;;;;;;;;;1718266;81;21110;-63
2022/09/10 09:51:43;;;;;;;6.97;5.62;;;;;;;;;;1727886;82;21076;-63
2022/09/10 09:54:16;;;;;;;7.62;5.37;;;;;;;;;;1735873;82;21567;-63
2022/09/10 09:56:44;;;;;;;;;;;;;;;;;;1723348;82;21465;-63
2022/09/10 09:59:24;;;;;;;7.55;5.33;;;;;;;;;;1743640;82;20188;-63
2022/09/10 10:01:50;;;;;;;8.00;5.30;;;;;;;;;;1723774;83;21005;-63
2022/09/10 10:04:21;;;;;;;7.35;5.37;;;;;;;;;;1738942;81;21099;-63
2022/09/10 10:06:49;;;;;;;6.47;5.08;;;;;;;;;;1688855;85;21584;-63
2022/09/10 10:09:19;;;;;;;6.08;4.78;;;;;;;;;;1671425;86;22299;-63
2022/09/10 10:11:46;;;;;;;9.10;5.17;;;;;;;;;;1688447;83;21026;-63
2022/09/10 10:14:15;;;;;;;6.55;4.60;;;;;;;;;;1690640;83;21038;-63
2022/09/10 10:19:31;;;;;;;5.90;4.72;;;;;;;;;;1725445;81;74867;-71
2022/09/10 10:22:00;;;;;;;6.40;4.95;;;;;;;;;;1690918;83;21080;-71
2022/09/10 10:24:31;;;;;;;5.15;4.40;;;;;;;;;;1688301;83;21006;-71
2022/09/10 10:42:19;;;;;;;4.90;4.40;;;;;;;;;;1784166;78;28959;-64
2022/09/10 10:44:56;;;;;;;4.78;3.20;;;;;;;;;;1763557;80;21191;-64
2022/09/10 10:47:36;;;;;;;4.65;3.70;;;;;;;;;;1759305;81;21505;-65
2022/09/10 10:50:05;;;;;;;4.50;3.77;;;;;;;;;;1762674;80;21013;-64
2022/09/10 10:52:33;;;;;;;5.37;4.12;;;;;;;;;;1759441;80;21001;-65
2022/09/10 10:55:19;;;;;;;4.97;4.20;;;;;;;;;;1758971;80;21072;-64
2022/09/10 10:57:50;;;;;;;4.65;3.72;;;;;;;;;;1733289;81;21049;-64
2022/09/10 11:00:17;;;;;;;5.50;4.15;;;;;;;;;;1760651;80;21037;-64
2022/09/10 11:02:51;;;;;;;7.87;4.70;;;;;;;;;;1752478;80;21016;-65
2022/09/10 11:05:19;;;;;;;5.97;4.47;;;;;;;;;;1760851;80;21016;-65
2022/09/10 11:07:46;;;;;;;6.90;5.25;;;;;;;;;;1755980;80;21522;-66
2022/09/10 11:10:23;;;;;;;6.85;5.05;;;;;;;;;;1748945;80;21032;-67
2022/09/10 11:12:54;;;;;;;6.62;5.42;;;;;;;;;;1751049;80;21040;-64
2022/09/10 11:15:23;;;;;;;7.37;6.55;;;;;;;;;;1744811;81;21095;-63
2022/09/10 11:17:52;;;;;;;8.00;5.78;;;;;;;;;;1749631;80;21103;-65
2022/09/10 11:20:22;;;;;;;7.53;5.58;;;;;;;;;;1747394;80;21068;-65
2022/09/10 11:22:50;;;;;;;6.92;5.62;;;;;;;;;;1744361;80;21189;-65
2022/09/10 11:25:25;;;;;;;7.47;5.53;;;;;;;;;;1743949;81;21013;-65
2022/09/10 11:27:53;;;;;;;8.35;5.85;;;;;;;;;;1748277;80;20946;-65
2022/09/10 11:30:20;;;;;;;7.53;5.85;;;;;;;;;;1756317;80;21091;-66
2022/09/10 11:45:01;;;;;;;11.18;8.03;;;;;;;;;;1789174;78;22697;-65
2022/09/10 11:47:32;;;;;;;9.28;6.80;;;;;;;;;;1765155;81;21495;-65
2022/09/10 11:50:06;;;;;;;8.80;6.78;;;;;;;;;;1765902;81;21491;-65
2022/09/10 11:52:33;;;;;;;9.65;7.10;;;;;;;;;;1756202;81;21059;-64
2022/09/10 12:07:09;;;;;;;8.68;6.62;;;;;;;;;;1796056;79;22995;-65
2022/09/10 12:09:52;;;;;;;9.25;7.20;;;;;;;;;;1757673;80;21051;-64
2022/09/10 12:12:24;;;;;;;11.38;7.33;;;;;;;;;;1760889;80;21982;-64
2022/09/10 12:14:50;;;;;;;11.35;7.53;;;;;;;;;;1772666;80;21498;-64
2022/09/10 12:17:17;;;;;;;9.75;7.85;;;;;;;;;;1766154;80;20966;-64
2022/09/10 12:19:45;;;;;;;10.68;8.48;;;;;;;;;;1719431;83;20980;-65
2022/09/10 12:22:15;;;;;;;19.17;13.60;;;;;;;;;;1762033;80;21496;-64
2022/09/10 12:24:43;;;;;;;10.10;8.58;;;;;;;;;;1780792;80;20993;-65
2022/09/10 12:39:48;;;;;;;11.90;8.28;;;;;;;;;;1804506;78;22991;-64
2022/09/10 12:42:25;;;;;;;10.38;7.30;;;;;;;;;;1782482;80;21055;-64
2022/09/10 12:44:51;;;;;;;10.48;7.50;;;;;;;;;;1771882;80;21055;-65
2022/09/10 12:47:20;;;;;;;9.88;7.85;;;;;;;;;;1754457;80;20997;-66
2022/09/10 12:49:50;;;;;;;9.75;7.72;;;;;;;;;;1763722;80;20988;-66
2022/09/10 12:52:21;;;;;;;10.32;8.03;;;;;;;;;;1767559;80;21019;-65
2022/09/10 12:54:59;;;;;;;10.90;8.55;;;;;;;;;;1765955;80;21557;-64
2022/09/10 12:57:27;;;;;;;10.32;8.45;;;;;;;;;;1755413;81;21068;-64
2022/09/10 13:00:13;;;;;;;14.87;9.05;;;;;;;;;;1750930;80;20996;-65
2022/09/10 13:02:44;;;;;;;15.30;9.05;;;;;;;;;;1761242;80;21042;-65
2022/09/10 13:05:20;;;;;;;9.68;7.95;;;;;;;;;;1760556;80;20990;-65
2022/09/10 13:07:48;;;;;;;10.60;8.13;;;;;;;;;;1765352;80;21009;-65
2022/09/10 13:10:21;;;;;;;9.08;7.33;;;;;;;;;;1741088;81;21060;-65
2022/09/10 13:12:48;;;;;;;11.50;7.75;;;;;;;;;;1772954;80;20996;-65
2022/09/10 13:15:18;;;;;;;9.83;7.30;;;;;;;;;;1770719;80;21542;-65
2022/09/10 13:17:51;;;;;;;10.50;7.67;;;;;;;;;;1755305;80;21048;-65
2022/09/10 13:20:22;;;;;;;9.95;8.38;;;;;;;;;;1761465;81;21129;-66
2022/09/10 13:23:00;;;;;;;12.73;9.45;;;;;;;;;;1760896;80;21037;-65
2022/09/10 13:25:28;;;;;;;15.15;10.08;;;;;;;;;;1757348;80;21086;-65
2022/09/10 13:27:56;;;;;;;15.20;10.05;;;;;;;;;;1756486;80;21024;-63
2022/09/10 13:30:23;;;;;;;12.47;9.48;;;;;;;;;;1738004;80;21048;-64
2022/09/10 13:32:54;;;;;;;12.55;9.30;;;;;;;;;;1725429;82;21064;-66
2022/09/10 13:35:25;;;;;;;12.40;8.00;;;;;;;;;;1729398;81;21043;-64
2022/09/10 13:37:59;;;;;;;10.95;8.18;;;;;;;;;;1727060;82;21048;-64
2022/09/10 13:40:29;;;;;;;12.90;8.13;;;;;;;;;;1684933;83;21670;-65
2022/09/10 13:43:04;;;;;;;12.18;8.10;;;;;;;;;;1720458;83;21061;-65
2022/09/10 13:45:36;;;;;;;11.30;9.40;;;;;;;;;;1727510;82;21084;-65
2022/09/10 14:01:48;;;;;;;10.85;8.40;;;;;;;;;;1774127;80;22325;-60
2022/09/10 14:04:22;;;;;;;11.22;7.78;;;;;;;;;;1776049;81;21033;-60
2022/09/10 14:06:48;;;;;;;10.38;7.85;;;;;;;;;;1776004;81;21021;-60
2022/09/10 14:09:14;;;;;;;12.00;7.65;;;;;;;;;;1783847;79;21036;-60
2022/09/10 14:11:40;;;;;;;10.00;7.10;;;;;;;;;;1781775;79;21626;-61
2022/09/10 14:14:08;;;;;;;8.70;6.75;;;;;;;;;;1775816;80;21063;-61
2022/09/10 14:16:51;;;;;;;9.80;7.67;;;;;;;;;;1774504;81;21489;-61
2022/09/10 14:19:21;;;;;;;10.18;7.75;;;;;;;;;;1735126;82;21015;-60
2022/09/10 14:21:47;;;;;;;10.60;7.97;;;;;;;;;;1742323;82;21455;-60
2022/09/10 14:24:30;;;;;;;10.90;7.87;;;;;;;;;;1713505;82;21396;-60
2022/09/10 14:27:15;;;;;;;9.83;7.75;;;;;;;;;;1739543;80;20973;-61
2022/09/10 14:29:41;;;;;;;10.53;7.62;;;;;;;;;;1732719;82;21507;-62
2022/09/10 14:32:26;;;;;;;9.80;8.00;;;;;;;;;;1732809;82;21014;-62
2022/09/10 14:34:52;;;;;;;10.23;8.40;;;;;;;;;;1743555;82;21010;-61
2022/09/10 14:37:30;;;;;;;11.30;8.75;;;;;;;;;;1723985;82;21509;-62
2022/09/10 14:40:11;;;;;;;10.03;8.23;;;;;;;;;;1728797;82;21061;-62
2022/09/10 14:42:37;;;;;;;10.20;7.83;;;;;;;;;;1732826;82;21575;-61
2022/09/10 14:45:04;;;;;;;10.63;7.25;;;;;;;;;;1731806;82;21591;-62
2022/09/10 14:47:35;;;;;;;10.08;7.90;;;;;;;;;;1740167;82;21008;-62
2022/09/10 14:50:20;;;;;;;10.45;8.93;;;;;;;;;;1750184;82;21115;-64
2022/09/10 14:52:47;;;;;;;11.03;8.15;;;;;;;;;;1720244;83;21076;-71
2022/09/10 14:55:13;;;;;;;9.33;7.20;;;;;;;;;;1700974;82;21104;-71
2022/09/10 14:57:40;;;;;;;9.40;8.45;;;;;;;;;;1694134;83;21084;-71
2022/09/10 15:00:08;;;;;;;10.08;7.80;;;;;;;;;;1693339;85;21614;-71
2022/09/10 15:02:36;;;;;;;11.10;8.38;;;;;;;;;;1713722;82;20974;-71
2022/09/10 15:05:02;;;;;;;9.28;7.65;;;;;;;;;;1719842;82;21064;-72
2022/09/10 15:07:29;;;;;;;10.03;7.75;;;;;;;;;;1716349;82;21095;-71
2022/09/10 15:09:55;;;;;;;12.18;8.80;;;;;;;;;;1698422;83;21091;-72
2022/09/10 15:12:27;;;;;;;8.63;7.20;;;;;;;;;;1695524;83;21068;-71
2022/09/10 15:14:53;;;;;;;10.98;7.87;;;;;;;;;;1721695;83;21017;-72
2022/09/10 15:17:19;;;;;;;10.03;7.00;;;;;;;;;;1721982;83;22219;-72
2022/09/10 15:19:47;;;;;;;10.05;7.70;;;;;;;;;;1718665;82;21080;-71
2022/09/10 15:22:15;;;;;;;11.35;8.10;;;;;;;;;;1722347;83;21064;-72
2022/09/10 15:24:41;;;;;;;9.43;7.72;;;;;;;;;;1712220;83;21048;-71
2022/09/10 15:27:08;;;;;;;9.03;7.05;;;;;;;;;;1693437;83;21076;-72
2022/09/10 15:29:34;;;;;;;10.53;7.58;;;;;;;;;;1694153;83;21048;-71
2022/09/10 15:32:00;;;;;;;9.33;7.47;;;;;;;;;;1693388;85;21088;-71
2022/09/10 15:34:27;;;;;;;9.45;6.97;;;;;;;;;;1693794;85;21080;-72
2022/09/10 15:36:53;;;;;;;11.90;8.53;;;;;;;;;;1695111;82;21607;-71
2022/09/10 15:39:19;;;;;;;13.45;8.53;;;;;;;;;;1693329;85;21612;-71
2022/09/10 15:41:46;;;;;;;10.38;7.62;;;;;;;;;;1696304;82;21022;-71
2022/09/10 15:44:12;;;;;;;9.03;6.87;;;;;;;;;;1701182;82;21060;-71
2022/09/10 15:46:43;;;;;;;11.45;7.53;;;;;;;;;;1719389;83;21069;-72
2022/09/10 15:49:10;;;;;;;10.23;7.37;;;;;;;;;;1695743;82;21578;-71
2022/09/10 15:51:36;;;;;;;9.93;7.20;;;;;;;;;;1693368;85;21349;-71
2022/09/10 15:54:02;;;;;;;8.48;7.12;;;;;;;;;;1694098;83;21042;-71
2022/09/10 15:56:29;;;;;;;10.95;7.78;;;;;;;;;;1693437;85;21074;-71
2022/09/10 15:58:56;;;;;;;8.83;7.15;;;;;;;;;;1694831;82;20966;-72
2022/09/10 16:01:23;;;;;;;11.63;7.70;;;;;;;;;;1694815;84;21095;-71
2022/09/10 16:03:50;;;;;;;8.68;6.75;;;;;;;;;;1703160;82;21073;-71
2022/09/10 16:06:18;;;;;;;8.75;6.35;;;;;;;;;;1682750;84;21563;-71
2022/09/10 16:08:51;;;;;;;9.30;6.47;;;;;;;;;;1705878;83;21599;-71
2022/09/10 16:11:18;;;;;;;7.97;6.85;;;;;;;;;;1696054;84;21085;-70
2022/09/10 16:13:45;;;;;;;10.10;6.85;;;;;;;;;;1695952;84;21116;-70
2022/09/10 16:16:12;;;;;;;9.43;6.58;;;;;;;;;;1696016;84;21588;-70
2022/09/10 16:18:39;;;;;;;10.25;6.80;;;;;;;;;;1695749;84;21117;-71
2022/09/10 16:21:12;;;;;;;10.18;7.30;;;;;;;;;;1711851;83;21530;-71
2022/09/10 16:23:39;;;;;;;8.20;6.25;;;;;;;;;;1716656;83;21497;-70
2022/09/10 16:26:06;;;;;;;8.68;6.50;;;;;;;;;;1715553;82;21128;-70
2022/09/10 16:28:33;;;;;;;8.63;6.62;;;;;;;;;;1712071;82;21504;-70
2022/09/10 16:33:48;;;;;;;9.00;6.65;;;;;;;;;;1661085;82;22547;-69
2022/09/10 16:36:16;;;;;;;9.23;7.05;;;;;;;;;;1617600;87;21058;-69
2022/09/10 16:38:42;;;;;;;9.18;7.70;;;;;;;;;;1592963;89;21598;-71
2022/09/10 16:52:12;;;;;;;8.03;6.83;;;;;;;;;;1797221;78;23466;-63
2022/09/10 16:54:40;;;;;;;10.25;6.35;;;;;;;;;;1757511;80;21503;-63
2022/09/10 16:57:06;;;;;;;9.05;6.58;;;;;;;;;;1763791;80;21039;-63
2022/09/10 16:59:34;;;;;;;8.28;6.25;;;;;;;;;;1736056;80;21135;-62
2022/09/10 17:02:00;;;;;;;10.65;6.90;;;;;;;;;;1764129;80;21467;-62
2022/09/10 17:04:27;;;;;;;9.85;6.58;;;;;;;;;;1766895;80;21076;-62
2022/09/10 17:06:54;;;;;;;9.73;7.10;;;;;;;;;;1760372;80;21068;-63
2022/09/10 17:09:21;;;;;;;9.05;7.33;;;;;;;;;;1769307;80;21001;-62
2022/09/10 17:11:47;;;;;;;9.95;7.30;;;;;;;;;;1760745;80;21048;-62
2022/09/10 17:14:13;;;;;;;12.65;7.95;;;;;;;;;;1763773;80;21027;-61
2022/09/10 17:16:40;;;;;;;10.68;7.12;;;;;;;;;;1765120;80;21040;-62
2022/09/10 17:19:08;;;;;;;11.25;7.12;;;;;;;;;;1774288;80;21009;-63
2022/09/10 17:21:35;;;;;;;11.12;8.05;;;;;;;;;;1759962;80;21026;-62
2022/09/10 17:24:02;;;;;;;9.98;7.70;;;;;;;;;;1763002;80;21112;-63
2022/09/10 17:26:28;;;;;;;11.97;8.33;;;;;;;;;;1775072;80;21037;-62
2022/09/10 17:28:57;;;;;;;10.30;7.87;;;;;;;;;;1763401;80;21543;-63
2022/09/10 17:31:23;;;;;;;10.43;7.20;;;;;;;;;;1761378;80;21067;-63
2022/09/10 17:33:50;;;;;;;11.83;8.20;;;;;;;;;;1779152;80;21084;-62
2022/09/10 17:36:16;;;;;;;12.95;9.08;;;;;;;;;;1769037;80;21567;-62
2022/09/10 17:38:42;;;;;;;11.35;7.92;;;;;;;;;;1763046;80;21087;-62
2022/09/10 17:41:09;;;;;;;11.60;8.48;;;;;;;;;;1761318;80;21633;-63
2022/09/10 17:43:36;;;;;;;10.70;8.03;;;;;;;;;;1737640;81;21560;-63
2022/09/10 17:46:06;;;;;;;11.65;7.65;;;;;;;;;;1742901;81;21330;-63
2022/09/10 17:48:34;;;;;;;11.88;8.08;;;;;;;;;;1738333;81;21072;-63
2022/09/10 18:03:57;;;;;;;7.90;6.08;;;;;;;;;;1855414;75;23209;-61
2022/09/10 18:06:24;;;;;;;9.45;6.72;;;;;;;;;;1865933;76;21089;-63
2022/09/10 18:08:50;;;;;;;9.13;7.10;;;;;;;;;;1868303;76;21054;-63
2022/09/10 18:11:17;;;;;;;10.85;7.58;;;;;;;;;;1863528;75;21565;-63
2022/09/10 18:13:45;;;;;;;10.58;7.50;;;;;;;;;;1856107;76;21058;-63
2022/09/10 18:16:12;;;;;;;10.00;7.33;;;;;;;;;;1863708;76;20983;-63
2022/09/10 18:18:38;;;;;;;10.70;7.67;;;;;;;;;;1848355;76;21016;-63
2022/09/10 18:21:15;;;;;;;10.10;7.67;;;;;;;;;;1855400;76;20975;-64
2022/09/10 18:23:46;;;;;;;9.90;7.70;;;;;;;;;;1858260;75;21024;-65
2022/09/10 18:26:10;;;;;;;11.45;8.20;;;;;;;;;;1861160;75;21019;-63
2022/09/10 18:28:36;;;;;;;10.58;7.95;;;;;;;;;;1851886;75;20995;-64
2022/09/10 18:31:03;;;;;;;11.65;8.53;;;;;;;;;;1846581;77;21062;-63
2022/09/10 18:33:34;;;;;;;13.15;7.05;;;;;;;;;;1867974;76;21514;-63
2022/09/10 18:36:00;;;;;;;11.70;7.60;;;;;;;;;;1871143;77;20964;-63
2022/09/10 18:38:27;;;;;;;10.85;7.62;;;;;;;;;;1861807;77;21023;-64
2022/09/10 18:40:55;;;;;;;9.90;7.53;;;;;;;;;;1870740;76;21023;-64
2022/09/10 18:43:21;;;;;;;11.55;7.97;;;;;;;;;;1869707;76;21051;-64
2022/09/10 18:45:47;;;;;;;10.68;8.00;;;;;;;;;;1862754;76;21039;-64
2022/09/10 18:48:13;;;;;;;10.65;7.35;;;;;;;;;;1855032;75;21155;-63
2022/09/10 18:50:39;;;;;;;9.13;7.20;;;;;;;;;;1861251;76;21035;-63
2022/09/10 18:53:05;;;;;;;8.30;7.20;;;;;;;;;;1854515;75;21586;-63
2022/09/10 18:55:32;;;;;;;11.75;8.33;;;;;;;;;;1829798;77;21045;-64
2022/09/10 19:00:40;;;;;;;10.43;8.53;;;;;;;;;;1787361;78;21798;-68
2022/09/10 19:03:07;;;;;;;8.78;6.33;;;;;;;;;;1792546;78;21044;-67
2022/09/10 19:05:34;;;;;;;9.38;6.70;;;;;;;;;;1792792;80;21042;-68